Главная страница
METAR-TAF:

METAR-TAF

Аэропорты :

Såtenäs, Швеция

широта: 58-26N, долгота: 012-42E, высота над уровнем моря: 54 м

Текущие метеонаблюдения

Эта сводка был подготовлена 23 минут назад, в 09:50 UTC
Ветер 10 Узел от западный-юго-западный
Температура 22°C
Влажность 73%
Давление 1020 hPa
Видимость 10 км и более
небольшая облачность на высоте 1700 фута

METAR: ESIB 060950Z 24010KT 9999 FEW017 22/17 Q1020

Время: 12:13 (10:13 UTC)

Прогноз

Эта сводка был подготовлена 1 час и 43 минут назад, в 08:30 UTC
Прогноз действительный с 06-го 09 UTC до 06-го 15 UTC
Ветер 8 Узел от юго-западный с порывами до 18 Узел
Видимость 10 км и более
Нет облачности ниже 1500 м, и нет кучево-дождевой облачности

TAF: ESIB 060830Z 0609/0615 22008G18KT CAVOK RMK MIL

Метеонаблюдения и прогнозы для более 4000 аэропортов (сводки METAR и TAF).

Имеющиеся станции представлены на карте желтыми и красными точками.

Чтобы увидеть название станции, наведите на нее мышь.

Затем щелкните, чтобы увидеть метеонаблюдения и метеопрогнозы.

Управление картой: чтобы увеличить масштаб, щелкните зеленые кнопки с черным крестиком; чтобы уменьшить масштаб, щелкните зеленую кнопку с тире; для просмотра соседних карт щелкайте зеленые стрелки.


METAR-TAF: